Clarington, Ohio
Current Conditions -  °F | °C
As of 8:53 PM on Sunday 21 Dec 2014 (Local Time) from KHLG Reporting Station
Clear Clear  
Wind Chill: 20°   Ceiling: Unl
Heat Index: 29°   Visibility: 8mi
Dew Point: 21°   Wind: 9mph
Humidity: 72%   Direction: 80°E
Pressure: 30.19"   Gusts: NA
Location:  39.77°N, 80.87°W
Report Text: KHLG 220153Z AUTO 08008KT 8SM CLR M02/M06 A3019 RMK AO2 SLP241 T10171061
Loading
Personal Weather Stations






























Interactive Weather Map New forecast layout! Learn more

10-Day Weather Forecast

Advertisements
Track Severe Weather on mobile